createdAt,value
2019-06-26T00:01:33.590Z,90.20
2019-06-26T00:04:02.194Z,90.20
2019-06-26T00:06:30.911Z,90.20
2019-06-26T00:08:59.528Z,90.20
2019-06-26T00:11:28.221Z,90.20
2019-06-26T00:13:56.936Z,89.80
2019-06-26T00:16:25.610Z,90.00
2019-06-26T00:18:54.329Z,89.10
2019-06-26T00:21:22.986Z,89.40
2019-06-26T00:23:51.618Z,90.10
2019-06-26T00:26:20.309Z,90.10
2019-06-26T00:28:48.966Z,90.20
2019-06-26T00:31:17.636Z,90.50
2019-06-26T00:33:46.338Z,90.40
2019-06-26T00:36:14.945Z,90.10
2019-06-26T00:38:43.691Z,90.10
2019-06-26T00:41:12.362Z,90.30
2019-06-26T00:43:42.586Z,90.20
2019-06-26T00:46:11.309Z,90.30
2019-06-26T00:48:40.319Z,90.40
2019-06-26T00:51:09.034Z,90.50
2019-06-26T00:53:37.668Z,90.60
2019-06-26T00:56:06.476Z,90.70
2019-06-26T00:58:35.134Z,90.70
2019-06-26T01:01:03.743Z,90.70
2019-06-26T01:03:32.463Z,90.80
2019-06-26T01:06:02.450Z,90.80
2019-06-26T01:08:31.071Z,90.90
2019-06-26T01:10:59.748Z,91.00
2019-06-26T01:13:28.402Z,91.00
2019-06-26T01:15:57.019Z,91.10
2019-06-26T01:18:25.692Z,91.10
2019-06-26T01:20:54.415Z,91.10
2019-06-26T01:23:23.096Z,91.00
2019-06-26T01:25:51.798Z,91.10
2019-06-26T01:28:20.466Z,91.10
2019-06-26T01:30:49.173Z,91.10
2019-06-26T01:33:17.776Z,91.20
2019-06-26T01:35:46.494Z,91.30
2019-06-26T01:38:15.213Z,91.30
2019-06-26T01:40:43.843Z,91.50
2019-06-26T01:43:12.476Z,91.60
2019-06-26T01:45:41.149Z,91.40
2019-06-26T01:48:09.851Z,91.40
2019-06-26T01:50:38.477Z,91.50
2019-06-26T01:53:07.087Z,91.60
2019-06-26T01:55:35.807Z,91.60
2019-06-26T01:58:04.421Z,91.60
2019-06-26T02:00:33.299Z,91.70
2019-06-26T02:03:02.105Z,91.70
2019-06-26T02:05:30.923Z,91.80
2019-06-26T02:07:59.626Z,91.70
2019-06-26T02:10:28.315Z,91.70
2019-06-26T02:12:57.010Z,91.80
2019-06-26T02:15:25.892Z,91.80
2019-06-26T02:17:54.627Z,91.80
2019-06-26T02:20:23.264Z,91.80
2019-06-26T02:22:51.956Z,91.90
2019-06-26T02:25:20.700Z,91.90
2019-06-26T02:27:49.407Z,91.90
2019-06-26T02:30:18.243Z,91.90
2019-06-26T02:32:46.911Z,92.00
2019-06-26T02:35:15.711Z,92.00
2019-06-26T02:37:44.407Z,92.00
2019-06-26T02:40:13.503Z,92.00
2019-06-26T02:42:42.195Z,92.00
2019-06-26T02:45:11.021Z,92.00
2019-06-26T02:47:39.723Z,92.00
2019-06-26T02:50:11.987Z,92.10
2019-06-26T02:52:40.706Z,92.20
2019-06-26T02:55:11.493Z,92.20
2019-06-26T02:57:40.180Z,92.60
2019-06-26T03:00:09.952Z,92.30
2019-06-26T03:02:38.564Z,92.30
2019-06-26T03:05:07.718Z,92.30
2019-06-26T03:07:36.406Z,92.30
2019-06-26T03:10:06.963Z,92.30
2019-06-26T03:12:35.969Z,92.20
2019-06-26T03:15:09.873Z,92.30
2019-06-26T03:17:54.175Z,92.20
2019-06-26T03:20:10.535Z,92.20
2019-06-26T03:22:39.158Z,92.20
2019-06-26T03:25:08.098Z,92.10
2019-06-26T03:27:36.708Z,92.10
2019-06-26T03:30:06.600Z,92.10
2019-06-26T03:32:35.311Z,92.10
2019-06-26T03:35:04.289Z,92.10
2019-06-26T03:37:32.911Z,92.20
2019-06-26T03:40:01.803Z,92.10
2019-06-26T03:42:30.627Z,92.10
2019-06-26T03:44:59.241Z,92.10
2019-06-26T03:47:27.919Z,92.00
2019-06-26T03:49:56.714Z,92.00
2019-06-26T03:52:25.454Z,91.90
2019-06-26T03:54:54.155Z,91.90
2019-06-26T03:57:22.842Z,91.80
2019-06-26T03:59:51.485Z,91.80
2019-06-26T04:02:20.216Z,91.70
2019-06-26T04:04:48.875Z,91.70
2019-06-26T04:07:17.503Z,91.60
2019-06-26T04:09:46.175Z,91.50
2019-06-26T04:12:14.823Z,91.60
2019-06-26T04:14:43.503Z,91.50
2019-06-26T04:17:12.215Z,91.50
2019-06-26T04:19:40.881Z,91.50
2019-06-26T04:22:09.536Z,91.30
2019-06-26T04:24:38.233Z,91.10
2019-06-26T04:27:06.886Z,91.00
2019-06-26T04:29:35.594Z,90.90
2019-06-26T04:32:04.264Z,90.80
2019-06-26T04:34:33.867Z,90.40
2019-06-26T04:37:02.555Z,90.50
2019-06-26T04:39:31.263Z,90.60
2019-06-26T04:41:59.900Z,90.60
2019-06-26T04:44:28.514Z,90.50
2019-06-26T04:46:58.681Z,90.10
2019-06-26T04:49:27.354Z,90.00
2019-06-26T04:51:56.038Z,89.80
2019-06-26T04:54:24.668Z,89.70
2019-06-26T04:56:53.312Z,89.30
2019-06-26T04:59:21.992Z,89.10
2019-06-26T05:01:50.687Z,89.00
2019-06-26T05:04:19.297Z,89.10
2019-06-26T05:06:48.081Z,88.60
2019-06-26T05:09:16.844Z,88.40
2019-06-26T05:11:45.671Z,88.50
2019-06-26T05:14:14.362Z,88.60
2019-06-26T05:16:43.012Z,87.50
2019-06-26T05:19:14.483Z,87.00
2019-06-26T05:21:43.087Z,86.80
2019-06-26T05:24:11.701Z,86.70
2019-06-26T05:26:40.404Z,86.50
2019-06-26T05:29:09.010Z,85.80
2019-06-26T05:31:37.786Z,85.90
2019-06-26T05:34:09.875Z,85.60
2019-06-26T05:36:36.951Z,85.30
2019-06-26T05:39:06.996Z,85.10
2019-06-26T05:41:35.698Z,84.80
2019-06-26T05:44:05.326Z,84.30
2019-06-26T05:46:33.983Z,84.00
2019-06-26T05:49:02.657Z,83.80
2019-06-26T05:51:31.368Z,83.40
2019-06-26T05:54:00.151Z,83.40
2019-06-26T05:56:28.897Z,82.60
2019-06-26T05:58:57.838Z,81.90
2019-06-26T06:01:26.471Z,80.70
2019-06-26T06:03:55.146Z,80.30
2019-06-26T06:06:23.903Z,78.80
2019-06-26T06:08:52.623Z,77.90
2019-06-26T06:11:21.271Z,78.00
2019-06-26T06:13:49.987Z,77.70
2019-06-26T06:16:18.779Z,77.30
2019-06-26T06:18:47.455Z,77.20
2019-06-26T06:21:16.137Z,77.30
2019-06-26T06:23:44.808Z,77.20
2019-06-26T06:26:13.413Z,76.20
2019-06-26T06:28:42.174Z,76.20
2019-06-26T06:31:10.962Z,76.30
2019-06-26T06:33:39.685Z,76.00
2019-06-26T06:36:09.712Z,74.70
2019-06-26T06:38:40.346Z,74.30
2019-06-26T06:41:09.048Z,74.30
2019-06-26T06:43:37.718Z,74.50
2019-06-26T06:46:06.475Z,74.00
2019-06-26T06:48:35.216Z,74.30
2019-06-26T06:51:05.110Z,73.80
2019-06-26T06:53:33.808Z,73.40
2019-06-26T06:56:02.480Z,73.20
2019-06-26T06:58:31.254Z,73.90
2019-06-26T07:00:59.866Z,73.40
2019-06-26T07:03:28.500Z,70.70
2019-06-26T07:05:57.175Z,71.00
2019-06-26T07:08:25.846Z,71.30
2019-06-26T07:10:54.468Z,71.50
2019-06-26T07:13:23.255Z,70.90
2019-06-26T07:15:53.058Z,69.10
2019-06-26T07:18:21.729Z,68.00
2019-06-26T07:20:50.419Z,67.10
2019-06-26T07:23:19.062Z,67.00
2019-06-26T07:25:47.845Z,66.10
2019-06-26T07:28:16.541Z,65.90
2019-06-26T07:30:46.650Z,66.00
2019-06-26T07:33:15.405Z,65.80
2019-06-26T07:35:44.136Z,66.40
2019-06-26T07:38:12.751Z,66.80
2019-06-26T07:40:41.389Z,67.20
2019-06-26T07:43:10.070Z,67.40
2019-06-26T07:45:38.759Z,64.20
2019-06-26T07:48:07.470Z,61.70
2019-06-26T07:50:36.069Z,61.20
2019-06-26T07:53:04.978Z,61.90
2019-06-26T07:55:33.723Z,61.90
2019-06-26T07:58:02.392Z,62.70
2019-06-26T08:00:31.868Z,62.90
2019-06-26T08:03:04.091Z,63.40
2019-06-26T08:05:31.046Z,64.10
2019-06-26T08:07:59.695Z,63.20
2019-06-26T08:10:28.467Z,59.30
2019-06-26T08:12:57.239Z,59.40
2019-06-26T08:15:25.922Z,60.20
2019-06-26T08:18:00.574Z,60.70
2019-06-26T08:20:24.886Z,60.50
2019-06-26T08:22:53.537Z,58.50
2019-06-26T08:25:22.237Z,58.70
2019-06-26T08:27:50.871Z,58.20
2019-06-26T08:30:19.901Z,58.80
2019-06-26T08:32:48.684Z,60.50
2019-06-26T08:35:17.443Z,60.40
2019-06-26T08:37:46.149Z,59.20
2019-06-26T08:40:15.172Z,58.30
2019-06-26T08:42:43.851Z,58.00
2019-06-26T08:45:13.059Z,58.30
2019-06-26T08:47:41.680Z,57.90
2019-06-26T08:50:12.028Z,57.70
2019-06-26T08:52:40.739Z,57.00
2019-06-26T08:55:09.627Z,57.60
2019-06-26T08:57:38.295Z,56.50
2019-06-26T09:00:09.421Z,57.30
2019-06-26T09:02:38.130Z,56.70
2019-06-26T09:05:07.420Z,56.40
2019-06-26T09:07:36.190Z,56.20
2019-06-26T09:10:09.407Z,56.50
2019-06-26T09:12:38.080Z,55.00
2019-06-26T09:15:07.591Z,54.10
2019-06-26T09:17:36.572Z,53.90
2019-06-26T09:20:06.984Z,53.10
2019-06-26T09:22:35.664Z,54.00
2019-06-26T09:25:20.860Z,54.10
2019-06-26T09:27:37.486Z,54.20
2019-06-26T09:30:09.358Z,53.10
2019-06-26T09:32:39.659Z,51.90
2019-06-26T09:35:09.302Z,52.00
2019-06-26T09:37:38.021Z,52.60
2019-06-26T09:40:07.240Z,53.80
2019-06-26T09:42:35.914Z,54.40
2019-06-26T09:45:06.766Z,54.30
2019-06-26T09:47:35.458Z,54.90
2019-06-26T09:50:08.954Z,54.50
2019-06-26T09:52:37.632Z,52.40
2019-06-26T09:55:06.941Z,52.40
2019-06-26T09:57:35.751Z,52.70
2019-06-26T10:00:09.590Z,53.40
2019-06-26T10:02:38.231Z,54.20
2019-06-26T10:05:07.191Z,52.70
2019-06-26T10:07:35.807Z,52.90
2019-06-26T10:10:05.138Z,50.80
2019-06-26T10:12:33.742Z,51.20
2019-06-26T10:15:02.372Z,51.30
2019-06-26T10:17:31.040Z,52.80
2019-06-26T10:19:59.680Z,50.30
2019-06-26T10:22:28.360Z,51.00
2019-06-26T10:24:56.997Z,49.60
2019-06-26T10:27:25.679Z,49.30
2019-06-26T10:29:54.382Z,48.90
2019-06-26T10:32:22.986Z,47.80
2019-06-26T10:34:51.590Z,48.20
2019-06-26T10:37:20.214Z,48.70
2019-06-26T10:39:48.842Z,48.70
2019-06-26T10:42:17.654Z,48.30
2019-06-26T10:44:46.290Z,48.00
2019-06-26T10:47:14.899Z,47.20
2019-06-26T10:49:43.608Z,48.20
2019-06-26T10:52:12.303Z,48.70
2019-06-26T10:54:44.173Z,47.00
2019-06-26T10:57:11.406Z,48.10
2019-06-26T10:59:40.177Z,48.00
2019-06-26T11:02:09.544Z,45.60
2019-06-26T11:04:38.187Z,44.70
2019-06-26T11:07:06.823Z,45.30
2019-06-26T11:09:35.527Z,46.60
2019-06-26T11:12:04.205Z,45.90
2019-06-26T11:14:32.932Z,44.60
2019-06-26T11:17:01.649Z,43.80
2019-06-26T11:19:43.462Z,42.60
2019-06-26T11:22:00.734Z,43.10
2019-06-26T11:24:29.485Z,42.50
2019-06-26T11:26:58.167Z,42.30
2019-06-26T11:29:26.882Z,42.10
2019-06-26T11:31:55.555Z,41.80
2019-06-26T11:34:24.268Z,40.40
2019-06-26T11:37:03.058Z,40.70
2019-06-26T11:39:23.305Z,40.70
2019-06-26T11:41:52.038Z,40.40
2019-06-26T11:44:20.727Z,39.20
2019-06-26T11:46:49.630Z,40.30
2019-06-26T11:49:18.272Z,41.30
2019-06-26T11:51:46.911Z,40.30
2019-06-26T11:54:15.586Z,40.40
2019-06-26T11:56:44.203Z,41.20
2019-06-26T11:59:12.837Z,41.10
2019-06-26T12:01:41.539Z,40.10
2019-06-26T12:04:10.223Z,38.90
2019-06-26T12:06:38.842Z,39.00
2019-06-26T12:09:08.767Z,37.80
2019-06-26T12:11:37.499Z,36.80
2019-06-26T12:14:06.218Z,37.20
2019-06-26T12:16:34.900Z,35.70
2019-06-26T12:19:03.643Z,34.90
2019-06-26T12:21:32.350Z,35.70
2019-06-26T12:24:01.067Z,35.40
2019-06-26T12:26:29.701Z,36.10
2019-06-26T12:28:58.312Z,35.60
2019-06-26T12:31:26.985Z,34.20
2019-06-26T12:33:55.647Z,34.90
2019-06-26T12:36:24.258Z,34.70
2019-06-26T12:38:52.961Z,35.50
2019-06-26T12:41:21.668Z,33.60
2019-06-26T12:43:50.362Z,33.20
2019-06-26T12:46:19.167Z,33.00
2019-06-26T12:48:47.910Z,31.90
2019-06-26T12:51:16.644Z,30.80
2019-06-26T12:53:45.502Z,29.40
2019-06-26T12:56:14.124Z,29.30
2019-06-26T12:58:42.831Z,29.10
2019-06-26T13:01:11.445Z,26.30
2019-06-26T13:03:40.128Z,25.50
2019-06-26T13:06:08.857Z,23.40
2019-06-26T13:08:37.578Z,23.40
2019-06-26T13:11:06.205Z,22.80
2019-06-26T13:13:34.805Z,22.50
2019-06-26T13:16:03.528Z,21.70
2019-06-26T13:18:32.202Z,21.80
2019-06-26T13:21:04.736Z,22.50
2019-06-26T13:23:31.292Z,23.10
2019-06-26T13:25:59.975Z,23.30
2019-06-26T13:28:28.758Z,22.70
2019-06-26T13:30:57.447Z,22.20
2019-06-26T13:33:26.107Z,22.70
2019-06-26T13:35:54.810Z,22.30
2019-06-26T13:38:26.976Z,22.60
2019-06-26T13:40:53.929Z,22.00
2019-06-26T13:43:22.700Z,21.60
2019-06-26T13:45:51.491Z,21.80
2019-06-26T13:48:20.195Z,22.50
2019-06-26T13:50:48.882Z,22.80
2019-06-26T13:53:17.591Z,24.30
2019-06-26T13:55:46.321Z,25.50
2019-06-26T13:58:15.007Z,27.00
2019-06-26T14:00:43.753Z,27.90
2019-06-26T14:03:12.459Z,28.70
2019-06-26T14:05:41.062Z,30.00
2019-06-26T14:08:09.835Z,31.70
2019-06-26T14:10:38.460Z,32.10
2019-06-26T14:13:07.187Z,33.40
2019-06-26T14:15:35.790Z,33.80
2019-06-26T14:18:04.703Z,35.00
2019-06-26T14:20:33.399Z,36.20
2019-06-26T14:23:02.361Z,36.90
2019-06-26T14:25:31.013Z,37.90
2019-06-26T14:27:59.693Z,37.10
2019-06-26T14:30:28.357Z,38.00
2019-06-26T14:32:57.070Z,39.00
2019-06-26T14:35:25.794Z,38.30
2019-06-26T14:37:54.546Z,38.70
2019-06-26T14:40:23.351Z,38.70
2019-06-26T14:42:52.099Z,39.70
2019-06-26T14:45:20.815Z,39.20
2019-06-26T14:47:49.575Z,39.00
2019-06-26T14:50:18.746Z,38.30
2019-06-26T14:52:47.499Z,39.30
2019-06-26T14:55:16.448Z,39.20
2019-06-26T14:57:45.200Z,38.60
2019-06-26T15:00:15.754Z,38.90
2019-06-26T15:02:44.467Z,39.50
2019-06-26T15:05:14.524Z,39.40
2019-06-26T15:07:43.311Z,39.70
2019-06-26T15:10:12.137Z,40.60
2019-06-26T15:12:40.896Z,42.00
2019-06-26T15:15:12.282Z,42.00
2019-06-26T15:17:41.106Z,42.00
2019-06-26T15:20:10.150Z,42.10
2019-06-26T15:22:38.895Z,42.30
2019-06-26T15:25:08.114Z,43.40
2019-06-26T15:27:39.147Z,43.10
2019-06-26T15:30:08.674Z,43.40
2019-06-26T15:32:37.419Z,43.90
2019-06-26T15:35:10.025Z,45.00
2019-06-26T15:37:38.780Z,45.00
2019-06-26T15:40:07.947Z,44.90
2019-06-26T15:42:36.704Z,44.80
2019-06-26T15:45:07.397Z,45.70
2019-06-26T15:47:36.254Z,44.60
2019-06-26T15:50:10.811Z,44.90
2019-06-26T15:52:39.144Z,44.50
2019-06-26T15:55:08.396Z,44.60
2019-06-26T15:57:37.101Z,45.10
2019-06-26T16:00:08.095Z,45.40
2019-06-26T16:02:36.838Z,46.00
2019-06-26T16:05:07.333Z,44.90
2019-06-26T16:07:36.107Z,45.50
2019-06-26T16:10:06.539Z,45.50
2019-06-26T16:12:35.291Z,45.90
2019-06-26T16:15:05.444Z,46.10
2019-06-26T16:17:44.771Z,46.30
2019-06-26T16:20:13.879Z,46.80
2019-06-26T16:22:43.448Z,46.40
2019-06-26T16:25:13.667Z,46.60
2019-06-26T16:27:42.427Z,46.70
2019-06-26T16:30:13.312Z,46.80
2019-06-26T16:32:42.088Z,47.50
2019-06-26T16:35:12.328Z,47.90
2019-06-26T16:37:41.393Z,47.60
2019-06-26T16:40:10.343Z,46.90
2019-06-26T16:42:39.152Z,47.50
2019-06-26T16:45:08.518Z,47.50
2019-06-26T16:47:37.237Z,47.50
2019-06-26T16:50:07.363Z,47.00
2019-06-26T16:52:48.550Z,47.00
2019-06-26T16:55:07.973Z,48.00
2019-06-26T16:57:36.721Z,48.10
2019-06-26T17:00:10.338Z,47.70
2019-06-26T17:02:39.333Z,47.60
2019-06-26T17:05:08.561Z,48.10
2019-06-26T17:07:37.341Z,48.40
2019-06-26T17:10:09.956Z,48.60
2019-06-26T17:12:38.770Z,48.10
2019-06-26T17:15:08.392Z,48.60
2019-06-26T17:17:37.150Z,49.30
2019-06-26T17:20:07.200Z,49.50
2019-06-26T17:22:36.002Z,49.80
2019-06-26T17:25:05.970Z,49.70
2019-06-26T17:27:34.782Z,50.10
2019-06-26T17:30:05.371Z,50.10
2019-06-26T17:32:34.190Z,49.70
2019-06-26T17:35:02.892Z,50.20
2019-06-26T17:37:31.707Z,49.70
2019-06-26T17:40:00.433Z,49.90
2019-06-26T17:42:29.256Z,50.20
2019-06-26T17:44:58.062Z,49.80
2019-06-26T17:47:26.788Z,50.00
2019-06-26T17:49:55.611Z,50.20
2019-06-26T17:52:24.353Z,50.60
2019-06-26T17:54:53.178Z,51.30
2019-06-26T17:57:21.891Z,51.00
2019-06-26T17:59:50.715Z,51.30
2019-06-26T18:02:19.471Z,51.70
2019-06-26T18:04:48.300Z,51.70
2019-06-26T18:07:17.113Z,52.10
2019-06-26T18:09:45.904Z,52.40
2019-06-26T18:12:14.668Z,52.70
2019-06-26T18:14:43.517Z,52.90
2019-06-26T18:17:22.188Z,52.90
2019-06-26T18:19:42.738Z,53.50
2019-06-26T18:22:11.502Z,53.70
2019-06-26T18:24:40.269Z,54.10
2019-06-26T18:27:09.016Z,54.50
2019-06-26T18:29:37.809Z,54.80
2019-06-26T18:32:06.696Z,55.00
2019-06-26T18:34:35.357Z,55.40
2019-06-26T18:37:04.195Z,56.30
2019-06-26T18:39:33.019Z,56.90
2019-06-26T18:42:01.736Z,57.00
2019-06-26T18:44:30.527Z,57.70
2019-06-26T18:46:59.336Z,57.90
2019-06-26T18:49:28.128Z,58.90
2019-06-26T18:51:56.843Z,58.40
2019-06-26T18:54:25.644Z,58.80
2019-06-26T18:56:54.425Z,59.20
2019-06-26T18:59:23.256Z,59.80
2019-06-26T19:01:51.955Z,60.20
2019-06-26T19:04:20.703Z,60.80
2019-06-26T19:06:49.456Z,60.90
2019-06-26T19:09:18.244Z,60.70
2019-06-26T19:11:47.088Z,61.20
2019-06-26T19:14:15.879Z,61.60
2019-06-26T19:16:44.657Z,61.80
2019-06-26T19:19:15.340Z,62.50
2019-06-26T19:21:44.092Z,63.20
2019-06-26T19:24:12.924Z,63.90
2019-06-26T19:27:01.021Z,64.20
2019-06-26T19:29:29.766Z,64.60
2019-06-26T19:31:58.573Z,65.10
2019-06-26T19:34:27.316Z,65.30
2019-06-26T19:36:56.129Z,65.50
2019-06-26T19:39:24.940Z,66.00
2019-06-26T19:41:53.682Z,66.80
2019-06-26T19:44:22.504Z,67.00
2019-06-26T19:46:51.222Z,67.00
2019-06-26T19:49:20.039Z,67.70
2019-06-26T19:51:48.771Z,67.50
2019-06-26T19:54:26.965Z,67.60
2019-06-26T19:56:47.978Z,68.30
2019-06-26T19:59:16.699Z,69.60
2019-06-26T20:01:45.471Z,70.60
2019-06-26T20:04:14.252Z,70.20
2019-06-26T20:06:43.023Z,69.90
2019-06-26T20:09:11.845Z,70.50
2019-06-26T20:11:40.697Z,71.30
2019-06-26T20:14:09.406Z,71.00
2019-06-26T20:16:38.187Z,70.90
2019-06-26T20:19:06.937Z,70.60
2019-06-26T20:21:35.757Z,70.50
2019-06-26T20:24:04.540Z,71.60
2019-06-26T20:26:33.325Z,71.90
2019-06-26T20:29:02.055Z,71.80
2019-06-26T20:31:30.775Z,72.90
2019-06-26T20:33:59.619Z,72.70
2019-06-26T20:36:28.347Z,72.40
2019-06-26T20:38:57.091Z,72.70
2019-06-26T20:41:26.014Z,73.60
2019-06-26T20:43:54.767Z,74.00
2019-06-26T20:46:23.559Z,74.40
2019-06-26T20:48:53.831Z,74.60
2019-06-26T20:51:22.575Z,74.60
2019-06-26T20:53:51.338Z,74.50
2019-06-26T20:56:20.085Z,74.90
2019-06-26T20:58:48.849Z,75.00
2019-06-26T21:01:17.553Z,76.00
2019-06-26T21:03:46.419Z,76.80
2019-06-26T21:06:15.115Z,76.70
2019-06-26T21:08:43.875Z,76.20
2019-06-26T21:11:15.637Z,76.60
2019-06-26T21:13:43.005Z,77.20
2019-06-26T21:16:11.763Z,77.80
2019-06-26T21:18:40.538Z,77.80
2019-06-26T21:21:09.348Z,78.00
2019-06-26T21:23:38.085Z,78.20
2019-06-26T21:26:06.869Z,78.60
2019-06-26T21:28:35.586Z,78.90
2019-06-26T21:31:04.393Z,78.90
2019-06-26T21:33:33.144Z,78.90
2019-06-26T21:36:01.866Z,79.20
2019-06-26T21:38:30.579Z,79.50
2019-06-26T21:40:59.329Z,79.80
2019-06-26T21:43:28.040Z,80.00
2019-06-26T21:45:56.803Z,80.50
2019-06-26T21:48:25.592Z,80.80
2019-06-26T21:50:54.346Z,81.40
2019-06-26T21:53:23.063Z,81.50
2019-06-26T21:55:51.814Z,81.20
2019-06-26T21:58:20.656Z,81.50
2019-06-26T22:00:49.474Z,81.00
2019-06-26T22:03:18.288Z,81.00
2019-06-26T22:05:47.120Z,81.30
2019-06-26T22:08:15.968Z,81.50
2019-06-26T22:10:44.748Z,81.90
2019-06-26T22:13:13.501Z,81.80
2019-06-26T22:15:42.217Z,81.90
2019-06-26T22:18:11.036Z,82.20
2019-06-26T22:20:39.755Z,82.40
2019-06-26T22:23:08.596Z,82.20
2019-06-26T22:25:50.282Z,82.40
2019-06-26T22:28:07.793Z,82.70
2019-06-26T22:30:36.499Z,82.60
2019-06-26T22:33:05.355Z,82.80
2019-06-26T22:35:34.119Z,82.60
2019-06-26T22:38:02.845Z,82.90
2019-06-26T22:40:31.615Z,83.20
2019-06-26T22:43:00.347Z,83.20
2019-06-26T22:45:29.160Z,83.60
2019-06-26T22:47:57.984Z,83.80
2019-06-26T22:50:26.707Z,84.20
2019-06-26T22:52:55.425Z,84.40
2019-06-26T22:55:24.176Z,84.10
2019-06-26T22:57:53.001Z,83.80
2019-06-26T23:00:21.865Z,83.80
2019-06-26T23:02:50.636Z,84.10
2019-06-26T23:05:19.393Z,84.40
2019-06-26T23:07:48.133Z,84.80
2019-06-26T23:10:17.187Z,84.60
2019-06-26T23:12:45.904Z,84.70
2019-06-26T23:15:15.072Z,84.50
2019-06-26T23:17:43.801Z,84.30
2019-06-26T23:20:12.620Z,84.40
2019-06-26T23:22:41.398Z,84.30
2019-06-26T23:25:10.191Z,84.20
2019-06-26T23:27:38.861Z,84.50
2019-06-26T23:30:21.411Z,83.90
2019-06-26T23:32:49.798Z,84.10
2019-06-26T23:35:18.403Z,85.40
2019-06-26T23:37:47.056Z,85.20
2019-06-26T23:40:16.103Z,84.90
2019-06-26T23:42:44.801Z,85.20
2019-06-26T23:45:13.400Z,85.20
2019-06-26T23:47:41.964Z,85.20
2019-06-26T23:50:10.677Z,84.90
2019-06-26T23:52:39.420Z,84.90
2019-06-26T23:55:08.273Z,85.40
2019-06-26T23:57:44.270Z,85.90
